createdAt,value
2022-09-03T00:00:57.451Z,101105.91
2022-09-03T00:03:33.715Z,101108.09
2022-09-03T00:06:11.392Z,101114.28
2022-09-03T00:08:45.262Z,101102.47
2022-09-03T00:35:07.123Z,101104.34
2022-09-03T00:37:38.319Z,101106.94
2022-09-03T00:40:13.068Z,101108.13
2022-09-03T00:42:55.797Z,101100.09
2022-09-03T00:45:34.064Z,101099.47
2022-09-03T00:48:42.360Z,101098.22
2022-09-03T00:51:37.498Z,101105.16
2022-09-03T00:54:40.325Z,101091.53
2022-09-03T00:57:28.971Z,101087.38
2022-09-03T01:00:09.172Z,101096.38
2022-09-03T01:03:01.957Z,101097.31
2022-09-03T01:05:47.078Z,101094.94
2022-09-03T01:08:39.262Z,101096.13
2022-09-03T01:11:20.103Z,101099.53
2022-09-03T01:14:03.285Z,101101.00
2022-09-03T01:16:40.857Z,101092.84
2022-09-03T01:19:38.237Z,101091.75
2022-09-03T01:22:46.464Z,101086.34
2022-09-03T01:25:17.730Z,101089.53
2022-09-03T01:28:10.345Z,101091.13
2022-09-03T01:30:47.447Z,101092.44
2022-09-03T01:33:33.923Z,101082.72
2022-09-03T01:36:12.292Z,101085.16
2022-09-03T01:38:54.263Z,101076.41
2022-09-03T01:41:48.802Z,101080.31
2022-09-03T01:44:37.561Z,101075.88
2022-09-03T01:47:19.080Z,101077.59
2022-09-03T01:49:59.589Z,101075.75
2022-09-03T01:52:50.514Z,101070.72
2022-09-03T01:55:21.317Z,101076.75
2022-09-03T01:57:57.525Z,101077.13
2022-09-03T02:00:25.207Z,101079.13
2022-09-03T02:02:53.171Z,101077.88
2022-09-03T02:05:25.824Z,101086.75
2022-09-03T02:08:03.137Z,101087.97
2022-09-03T02:10:38.765Z,101087.56
2022-09-03T02:13:08.677Z,101082.09
2022-09-03T02:15:37.733Z,101086.41
2022-09-03T02:18:07.979Z,101082.88
2022-09-03T02:20:34.759Z,101078.38
2022-09-03T02:23:02.663Z,101089.16
2022-09-03T02:25:33.737Z,101093.47
2022-09-03T02:28:01.078Z,101086.28
2022-09-03T02:30:28.145Z,101090.78
2022-09-03T02:32:55.098Z,101082.97
2022-09-03T02:35:21.896Z,101087.28
2022-09-03T02:37:48.610Z,101092.06
2022-09-03T02:40:15.335Z,101086.09
2022-09-03T02:42:42.095Z,101085.47
2022-09-03T02:45:27.842Z,101082.81
2022-09-03T02:47:59.828Z,101085.72
2022-09-03T02:50:27.151Z,101079.63
2022-09-03T02:52:53.976Z,101086.38
2022-09-03T02:55:20.779Z,101093.97
2022-09-03T02:57:47.489Z,101096.00
2022-09-03T03:00:14.853Z,101086.50
2022-09-03T03:02:42.075Z,101089.28
2022-09-03T03:05:10.302Z,101084.28
2022-09-03T03:07:38.397Z,101090.34
2022-09-03T03:10:05.456Z,101091.66
2022-09-03T03:12:32.524Z,101086.53
2022-09-03T03:14:59.229Z,101083.53
2022-09-03T03:17:26.395Z,101087.69
2022-09-03T03:19:53.124Z,101091.53
2022-09-03T03:22:19.870Z,101086.00
2022-09-03T03:24:46.655Z,101083.22
2022-09-03T03:27:15.007Z,101091.13
2022-09-03T03:29:41.798Z,101088.16
2022-09-03T03:32:08.466Z,101087.91
2022-09-03T03:34:35.164Z,101096.81
2022-09-03T03:37:02.160Z,101093.78
2022-09-03T03:39:28.908Z,101089.00
2022-09-03T03:41:56.359Z,101090.59
2022-09-03T03:44:23.257Z,101093.50
2022-09-03T03:46:49.954Z,101093.91
2022-09-03T03:49:16.662Z,101097.53
2022-09-03T03:51:43.348Z,101096.59
2022-09-03T03:54:10.177Z,101098.38
2022-09-03T03:56:39.602Z,101103.31
2022-09-03T03:59:06.351Z,101103.94
2022-09-03T04:01:33.210Z,101104.16
2022-09-03T04:04:00.535Z,101100.63
2022-09-03T04:06:27.922Z,101100.97
2022-09-03T04:08:57.147Z,101100.41
2022-09-03T04:11:24.523Z,101106.94
2022-09-03T04:13:51.875Z,101099.66
2022-09-03T04:16:24.137Z,101091.31
2022-09-03T04:18:51.321Z,101094.75
2022-09-03T04:21:21.257Z,101098.13
2022-09-03T04:23:49.512Z,101090.75
2022-09-03T04:26:19.048Z,101098.53
2022-09-03T04:28:45.818Z,101093.09
2022-09-03T04:31:14.414Z,101086.34
2022-09-03T04:33:41.838Z,101091.28
2022-09-03T04:36:14.188Z,101082.50
2022-09-03T04:38:43.056Z,101082.06
2022-09-03T04:41:12.235Z,101078.09
2022-09-03T04:43:39.270Z,101070.72
2022-09-03T04:46:10.841Z,101080.88
2022-09-03T04:48:44.135Z,101079.47
2022-09-03T04:51:13.630Z,101088.00
2022-09-03T04:53:42.578Z,101081.69
2022-09-03T04:56:21.538Z,101084.59
2022-09-03T04:58:50.989Z,101084.38
2022-09-03T05:01:20.169Z,101085.00
2022-09-03T05:03:47.416Z,101084.25
2022-09-03T05:06:17.288Z,101083.41
2022-09-03T05:08:49.039Z,101089.25
2022-09-03T05:11:19.906Z,101089.69
2022-09-03T05:13:50.720Z,101098.69
2022-09-03T05:16:17.872Z,101096.72
2022-09-03T05:18:45.253Z,101092.84
2022-09-03T05:21:14.044Z,101095.91
2022-09-03T05:23:42.752Z,101100.94
2022-09-03T05:26:15.365Z,101100.56
2022-09-03T05:28:43.154Z,101091.94
2022-09-03T05:31:18.043Z,101099.84
2022-09-03T05:33:50.749Z,101103.94
2022-09-03T05:36:19.652Z,101092.34
2022-09-03T05:38:47.757Z,101091.06
2022-09-03T05:41:15.496Z,101096.06
2022-09-03T05:43:43.397Z,101093.25
2022-09-03T05:46:18.503Z,101097.66
2022-09-03T05:48:45.271Z,101093.50
2022-09-03T05:51:16.878Z,101099.25
2022-09-03T05:53:48.199Z,101093.13
2022-09-03T05:56:20.482Z,101098.16
2022-09-03T05:58:49.195Z,101093.19
2022-09-03T06:01:30.105Z,101090.63
2022-09-03T06:04:01.169Z,101096.56
2022-09-03T06:06:29.661Z,101094.66
2022-09-03T06:08:58.756Z,101095.41
2022-09-03T06:11:28.320Z,101099.69
2022-09-03T06:13:56.873Z,101099.34
2022-09-03T06:16:30.841Z,101104.56
2022-09-03T06:18:59.830Z,101102.00
2022-09-03T06:21:26.865Z,101110.81
2022-09-03T06:23:59.441Z,101100.19
2022-09-03T06:26:30.764Z,101102.03
2022-09-03T06:28:57.932Z,101105.00
2022-09-03T06:31:25.545Z,101111.22
2022-09-03T06:33:53.814Z,101103.06
2022-09-03T06:36:21.636Z,101093.31
2022-09-03T06:38:52.287Z,101100.97
2022-09-03T06:41:21.250Z,101101.84
2022-09-03T06:43:49.347Z,101105.22
2022-09-03T06:46:18.185Z,101108.03
2022-09-03T06:48:47.633Z,101095.88
2022-09-03T06:51:17.173Z,101106.06
2022-09-03T06:53:49.545Z,101099.00
2022-09-03T06:56:19.154Z,101109.50
2022-09-03T06:58:47.890Z,101110.13
2022-09-03T07:01:17.565Z,101108.75
2022-09-03T07:03:47.676Z,101107.66
2022-09-03T07:06:16.602Z,101112.50
2022-09-03T07:08:44.157Z,101109.47
2022-09-03T07:11:13.388Z,101110.91
2022-09-03T07:13:43.338Z,101108.09
2022-09-03T07:16:12.318Z,101101.63
2022-09-03T07:18:39.916Z,101117.50
2022-09-03T07:21:08.814Z,101111.41
2022-09-03T07:23:36.908Z,101111.16
2022-09-03T07:26:06.657Z,101112.09
2022-09-03T07:28:36.033Z,101111.75
2022-09-03T07:31:11.961Z,101114.78
2022-09-03T07:33:39.531Z,101118.81
2022-09-03T07:36:11.335Z,101116.81
2022-09-03T07:38:38.198Z,101118.00
2022-09-03T07:41:07.669Z,101109.34
2022-09-03T07:43:48.554Z,101118.63
2022-09-03T07:46:23.664Z,101112.63
2022-09-03T07:48:52.454Z,101117.03
2022-09-03T07:51:20.747Z,101119.31
2022-09-03T07:53:48.750Z,101121.97
2022-09-03T07:56:15.908Z,101125.56
2022-09-03T07:58:42.773Z,101122.63
2022-09-03T08:01:16.917Z,101120.13
2022-09-03T08:03:48.132Z,101127.09
2022-09-03T08:06:15.838Z,101129.63
2022-09-03T08:08:43.329Z,101127.59
2022-09-03T08:11:14.992Z,101134.88
2022-09-03T08:13:46.561Z,101126.16
2022-09-03T08:16:15.187Z,101121.19
2022-09-03T08:18:42.299Z,101125.78
2022-09-03T08:21:15.979Z,101120.50
2022-09-03T08:23:44.344Z,101132.81
2022-09-03T08:26:11.967Z,101133.28
2022-09-03T08:28:39.058Z,101130.06
2022-09-03T08:31:07.915Z,101124.38
2022-09-03T08:33:37.602Z,101127.28
2022-09-03T08:36:09.596Z,101122.13
2022-09-03T08:38:36.951Z,101120.13
2022-09-03T08:41:23.876Z,101123.41
2022-09-03T08:44:03.182Z,101116.59
2022-09-03T08:46:52.085Z,101110.28
2022-09-03T08:49:58.691Z,101118.78
2022-09-03T08:52:37.646Z,101112.44
2022-09-03T08:55:18.253Z,101113.84
2022-09-03T08:57:50.791Z,101107.75
2022-09-03T09:00:18.048Z,101107.44
2022-09-03T09:03:08.245Z,101103.78
2022-09-03T09:05:52.036Z,101093.19
2022-09-03T09:08:35.424Z,101099.72
2022-09-03T09:11:22.414Z,101089.09
2022-09-03T09:14:03.919Z,101087.13
2022-09-03T09:16:45.151Z,101082.88
2022-09-03T09:19:39.759Z,101084.00
2022-09-03T09:22:15.078Z,101082.75
2022-09-03T09:24:45.073Z,101080.75
2022-09-03T09:27:17.287Z,101073.28
2022-09-03T09:29:46.849Z,101077.81
2022-09-03T09:32:14.760Z,101071.13
2022-09-03T09:34:42.079Z,101070.88
2022-09-03T09:37:13.527Z,101073.97
2022-09-03T09:39:41.380Z,101061.34
2022-09-03T09:42:11.381Z,101068.84
2022-09-03T09:44:43.590Z,101059.31
2022-09-03T09:47:21.870Z,101060.88
2022-09-03T09:49:59.870Z,101061.72
2022-09-03T09:52:30.371Z,101054.56
2022-09-03T09:55:09.944Z,101055.28
2022-09-03T09:57:38.132Z,101061.09
2022-09-03T10:00:09.339Z,101048.13
2022-09-03T10:02:47.675Z,101045.69
2022-09-03T10:05:25.958Z,101048.50
2022-09-03T10:08:05.392Z,101052.44
2022-09-03T10:10:42.480Z,101050.44
2022-09-03T10:13:13.448Z,101057.22
2022-09-03T10:15:49.057Z,101048.66
2022-09-03T10:18:29.253Z,101046.19
2022-09-03T10:21:07.808Z,101048.00
2022-09-03T10:23:47.176Z,101046.00
2022-09-03T10:26:17.508Z,101045.69
2022-09-03T10:28:46.619Z,101046.78
2022-09-03T10:31:36.859Z,101043.16
2022-09-03T10:34:14.933Z,101043.00
2022-09-03T10:36:56.448Z,101034.19
2022-09-03T10:39:32.564Z,101028.41
2022-09-03T10:42:20.293Z,101031.66
2022-09-03T10:44:47.007Z,101027.78
2022-09-03T10:47:36.151Z,101033.16
2022-09-03T10:50:16.127Z,101026.56
2022-09-03T10:53:06.121Z,101031.53
2022-09-03T10:55:50.361Z,101021.97
2022-09-03T10:58:47.520Z,101027.78
2022-09-03T11:01:28.043Z,101027.06
2022-09-03T11:04:19.105Z,101020.22
2022-09-03T11:06:53.673Z,101009.16
2022-09-03T11:09:50.664Z,101013.94
2022-09-03T11:12:31.537Z,101006.41
2022-09-03T11:15:18.514Z,100993.41
2022-09-03T11:17:56.993Z,101004.09
2022-09-03T11:20:25.686Z,101001.81
2022-09-03T11:22:56.458Z,100995.34
2022-09-03T11:25:28.660Z,100987.03
2022-09-03T11:28:21.411Z,101002.78
2022-09-03T11:31:27.127Z,101001.06
2022-09-03T11:34:01.761Z,100994.00
2022-09-03T11:36:31.476Z,100989.03
2022-09-03T11:38:58.298Z,100987.75
2022-09-03T11:41:27.510Z,100987.09
2022-09-03T11:43:54.871Z,100984.38
2022-09-03T11:46:21.950Z,100983.88
2022-09-03T11:48:57.876Z,100985.56
2022-09-03T11:51:30.499Z,100975.91
2022-09-03T11:54:13.625Z,100981.63
2022-09-03T11:56:42.328Z,100985.03
2022-09-03T11:59:15.143Z,100980.66
2022-09-03T12:01:46.548Z,100971.88
2022-09-03T12:04:18.274Z,100963.41
2022-09-03T12:07:03.473Z,100962.72
2022-09-03T12:10:13.837Z,100956.63
2022-09-03T12:12:55.197Z,100962.72
2022-09-03T12:15:36.484Z,100949.53
2022-09-03T12:18:20.747Z,100954.25
2022-09-03T12:20:50.959Z,100961.03
2022-09-03T12:23:31.259Z,100957.97
2022-09-03T12:26:05.531Z,100951.69
2022-09-03T12:28:36.989Z,100958.91
2022-09-03T12:31:21.691Z,100945.88
2022-09-03T12:33:54.262Z,100943.88
2022-09-03T12:36:23.031Z,100945.28
2022-09-03T12:39:10.870Z,100942.41
2022-09-03T12:41:37.983Z,100948.84
2022-09-03T12:44:05.347Z,100941.56
2022-09-03T12:46:34.280Z,100932.25
2022-09-03T12:51:58.139Z,100933.44
2022-09-03T12:54:27.215Z,100922.44
2022-09-03T12:56:59.065Z,100920.22
2022-09-03T12:59:28.068Z,100926.66
2022-09-03T13:02:01.049Z,100913.78
2022-09-03T13:04:30.246Z,100921.28
2022-09-03T13:07:04.616Z,100919.06
2022-09-03T13:09:34.114Z,100909.75
2022-09-03T13:12:04.876Z,100908.66
2022-09-03T13:14:45.330Z,100916.16
2022-09-03T13:17:18.493Z,100903.81
2022-09-03T13:20:34.129Z,100900.19
2022-09-03T13:23:19.359Z,100904.22
2022-09-03T13:26:00.690Z,100904.75
2022-09-03T13:28:44.230Z,100897.69
2022-09-03T13:31:13.636Z,100899.13
2022-09-03T13:33:44.643Z,100910.19
2022-09-03T13:36:26.124Z,100907.53
2022-09-03T13:39:26.183Z,100907.72
2022-09-03T13:42:06.217Z,100904.00
2022-09-03T13:45:13.564Z,100904.00
2022-09-03T13:48:10.200Z,100906.19
2022-09-03T13:50:51.068Z,100897.06
2022-09-03T13:53:24.697Z,100897.75
2022-09-03T13:55:55.538Z,100893.94
2022-09-03T13:58:33.616Z,100883.59
2022-09-03T14:01:15.610Z,100893.28
2022-09-03T14:03:55.509Z,100887.84
2022-09-03T14:06:41.387Z,100892.97
2022-09-03T14:09:21.711Z,100879.63
2022-09-03T14:12:13.258Z,100882.34
2022-09-03T14:14:53.865Z,100878.34
2022-09-03T14:17:39.560Z,100878.41
2022-09-03T14:20:11.274Z,100878.38
2022-09-03T14:23:07.996Z,100881.41
2022-09-03T14:25:34.748Z,100879.91
2022-09-03T14:28:16.281Z,100878.06
2022-09-03T14:31:19.091Z,100878.31
2022-09-03T14:33:59.751Z,100868.16
2022-09-03T14:36:31.592Z,100860.41
2022-09-03T14:39:20.712Z,100861.78
2022-09-03T14:42:06.455Z,100865.06
2022-09-03T14:44:52.203Z,100865.53
2022-09-03T14:47:37.294Z,100863.34
2022-09-03T14:50:23.554Z,100871.22
2022-09-03T14:53:18.290Z,100874.44
2022-09-03T14:56:22.399Z,100864.66
2022-09-03T14:59:09.316Z,100859.16
2022-09-03T15:01:39.388Z,100856.72
2022-09-03T15:04:23.785Z,100853.66
2022-09-03T15:07:22.758Z,100844.00
2022-09-03T15:10:16.963Z,100844.56
2022-09-03T15:12:46.765Z,100860.06
2022-09-03T15:15:19.651Z,100853.34
2022-09-03T15:18:02.577Z,100857.50
2022-09-03T15:20:48.873Z,100858.25
2022-09-03T15:23:40.468Z,100863.59
2022-09-03T15:26:12.958Z,100862.66
2022-09-03T15:29:01.959Z,100865.56
2022-09-03T15:32:06.584Z,100853.00
2022-09-03T15:34:52.084Z,100848.88
2022-09-03T15:37:27.553Z,100853.84
2022-09-03T15:40:16.142Z,100850.78
2022-09-03T15:42:44.681Z,100843.56
2022-09-03T15:45:22.295Z,100847.63
2022-09-03T15:47:54.423Z,100854.84
2022-09-03T15:50:35.746Z,100856.97
2022-09-03T15:53:32.017Z,100860.72
2022-09-03T15:56:16.292Z,100850.63
2022-09-03T15:59:03.319Z,100854.75
2022-09-03T16:01:40.195Z,100856.06
2022-09-03T16:04:17.285Z,100851.63
2022-09-03T16:07:13.471Z,100847.53
2022-09-03T16:10:22.750Z,100846.41
2022-09-03T16:13:02.278Z,100845.28
2022-09-03T16:15:36.876Z,100846.59
2022-09-03T16:18:12.497Z,100845.75
2022-09-03T16:20:50.552Z,100856.59
2022-09-03T16:23:48.117Z,100856.19
2022-09-03T16:26:37.109Z,100865.50
2022-09-03T16:29:09.565Z,100866.88
2022-09-03T16:32:04.257Z,100870.88
2022-09-03T16:34:59.129Z,100871.16
2022-09-03T16:37:53.470Z,100855.53
2022-09-03T16:40:36.641Z,100872.00
2022-09-03T16:43:29.886Z,100861.59
2022-09-03T16:46:04.160Z,100869.66
2022-09-03T16:48:37.238Z,100866.16
2022-09-03T16:51:14.288Z,100874.47
2022-09-03T16:54:06.284Z,100878.78
2022-09-03T16:56:57.844Z,100877.56
2022-09-03T16:59:33.325Z,100876.41
2022-09-03T17:02:42.607Z,100879.97
2022-09-03T17:05:21.452Z,100872.34
2022-09-03T17:08:07.586Z,100877.41
2022-09-03T17:10:49.381Z,100873.19
2022-09-03T17:13:32.131Z,100871.31
2022-09-03T17:16:08.139Z,100871.44
2022-09-03T17:18:34.875Z,100879.34
2022-09-03T17:21:10.369Z,100874.41
2022-09-03T17:23:49.191Z,100880.13
2022-09-03T17:26:16.792Z,100876.22
2022-09-03T17:28:57.955Z,100870.63
2022-09-03T17:31:44.441Z,100876.38
2022-09-03T17:34:37.495Z,100879.88
2022-09-03T17:37:35.005Z,100874.09
2022-09-03T17:40:08.996Z,100875.28
2022-09-03T17:43:00.797Z,100873.38
2022-09-03T17:45:37.630Z,100880.94
2022-09-03T17:48:16.261Z,100885.84
2022-09-03T17:50:51.306Z,100893.59
2022-09-03T17:53:44.580Z,100889.41
2022-09-03T17:56:25.297Z,100894.97
2022-09-03T17:59:12.392Z,100897.00
2022-09-03T18:01:48.724Z,100904.72
2022-09-03T18:04:42.456Z,100905.66
2022-09-03T18:07:23.766Z,100910.69
2022-09-03T18:10:16.460Z,100906.63
2022-09-03T18:13:23.699Z,100910.25
2022-09-03T18:16:07.855Z,100914.13
2022-09-03T18:18:38.725Z,100914.44
2022-09-03T18:21:31.519Z,100918.13
2022-09-03T18:24:17.633Z,100915.66
2022-09-03T18:27:16.705Z,100921.38
2022-09-03T18:30:16.136Z,100929.47
2022-09-03T18:33:02.573Z,100930.31
2022-09-03T18:35:49.462Z,100924.00
2022-09-03T18:38:43.164Z,100931.78
2022-09-03T18:41:56.070Z,100934.09
2022-09-03T18:44:41.566Z,100927.69
2022-09-03T18:50:54.693Z,100930.19
2022-09-03T18:53:49.613Z,100940.88
2022-09-03T18:56:54.164Z,100942.00
2022-09-03T18:59:45.840Z,100934.41
2022-09-03T19:02:53.183Z,100938.94
2022-09-03T19:05:49.232Z,100932.63
2022-09-03T19:08:44.085Z,100940.00
2022-09-03T19:11:44.508Z,100941.63
2022-09-03T23:29:32.972Z,101071.63
